createdAt,value
2023-03-04T00:02:43.420Z,9.30
2023-03-04T00:07:45.589Z,13.50
2023-03-04T00:12:49.198Z,16.05
2023-03-04T00:17:51.298Z,8.10
2023-03-04T00:22:53.849Z,8.40
2023-03-04T00:27:57.487Z,10.70
2023-03-04T00:32:59.598Z,9.00
2023-03-04T00:38:01.784Z,10.50
2023-03-04T00:43:05.346Z,12.15
2023-03-04T00:48:07.605Z,10.73
2023-03-04T00:53:10.388Z,8.23
2023-03-04T00:58:13.944Z,10.95
2023-03-04T01:03:16.157Z,11.98
2023-03-04T01:08:18.264Z,11.80
2023-03-04T01:13:21.945Z,8.15
2023-03-04T01:18:24.383Z,18.10
2023-03-04T01:23:26.625Z,10.30
2023-03-04T01:28:30.097Z,8.27
2023-03-04T01:33:32.183Z,10.88
2023-03-04T01:38:34.489Z,6.80
2023-03-04T01:43:38.346Z,4.63
2023-03-04T01:48:41.260Z,8.10
2023-03-04T01:53:44.836Z,11.30
2023-03-04T01:59:09.361Z,11.43
2023-03-04T02:04:12.473Z,5.32
2023-03-04T02:09:16.033Z,7.70
2023-03-04T02:14:20.547Z,7.63
2023-03-04T02:19:35.891Z,8.50
2023-03-04T02:24:44.044Z,9.38
2023-03-04T02:29:47.705Z,6.13
2023-03-04T02:34:50.880Z,5.40
2023-03-04T02:39:53.009Z,8.50
2023-03-04T02:45:01.657Z,8.05
2023-03-04T02:50:04.441Z,12.27
2023-03-04T02:55:07.555Z,7.82
2023-03-04T03:00:12.758Z,6.70
2023-03-04T03:05:19.799Z,8.20
2023-03-04T03:10:24.298Z,4.10
2023-03-04T03:15:30.995Z,8.98
2023-03-04T03:20:35.971Z,4.93
2023-03-04T03:25:42.522Z,9.90
2023-03-04T03:30:48.341Z,5.40
2023-03-04T03:35:50.576Z,8.80
2023-03-04T03:40:52.966Z,7.25
2023-03-04T03:45:56.565Z,5.75
2023-03-04T03:50:58.699Z,6.35
2023-03-04T03:56:00.836Z,7.25
2023-03-04T04:01:04.609Z,10.10
2023-03-04T04:06:07.129Z,6.38
2023-03-04T04:11:10.125Z,5.40
2023-03-04T04:16:13.744Z,10.30
2023-03-04T04:21:15.925Z,6.07
2023-03-04T04:26:18.422Z,10.85
2023-03-04T04:31:22.079Z,4.68
2023-03-04T04:36:24.372Z,10.95
2023-03-04T04:41:29.880Z,8.60
2023-03-04T04:46:33.659Z,8.30
2023-03-04T04:51:37.483Z,9.20
2023-03-04T04:56:39.629Z,12.07
2023-03-04T05:01:43.239Z,5.65
2023-03-04T05:06:45.328Z,4.97
2023-03-04T05:11:47.450Z,4.45
2023-03-04T05:16:51.037Z,4.47
2023-03-04T05:21:53.229Z,5.25
2023-03-04T05:26:55.493Z,4.55
2023-03-04T05:31:59.226Z,6.68
2023-03-04T05:37:01.575Z,4.05
2023-03-04T05:42:03.853Z,2.55
2023-03-04T05:47:07.487Z,4.50
2023-03-04T05:52:12.491Z,4.15
2023-03-04T05:57:14.663Z,5.47
2023-03-04T06:02:18.375Z,8.18
2023-03-04T06:07:20.562Z,9.90
2023-03-04T06:12:22.633Z,8.20
2023-03-04T06:17:26.314Z,7.82
2023-03-04T06:22:29.055Z,13.10
2023-03-04T06:27:31.186Z,12.27
2023-03-04T06:32:34.858Z,19.02
2023-03-04T06:37:37.422Z,13.13
2023-03-04T06:42:40.517Z,11.65
2023-03-04T06:47:44.093Z,12.98
2023-03-04T06:52:46.545Z,11.05
2023-03-04T06:57:48.718Z,12.77
2023-03-04T07:02:54.995Z,15.10
2023-03-04T07:07:57.428Z,10.20
2023-03-04T07:12:59.681Z,11.75
2023-03-04T07:18:03.310Z,14.77
2023-03-04T07:23:05.495Z,21.45
2023-03-04T07:28:07.644Z,15.32
2023-03-04T07:33:11.232Z,20.20
2023-03-04T07:38:13.565Z,12.10
2023-03-04T07:43:15.622Z,21.92
2023-03-04T07:48:19.416Z,17.85
2023-03-04T07:53:21.604Z,14.50
2023-03-04T07:58:23.818Z,19.45
2023-03-04T08:03:29.100Z,18.42
2023-03-04T08:08:31.267Z,12.95
2023-03-04T08:13:33.720Z,9.75
2023-03-04T08:18:37.384Z,7.05
2023-03-04T08:23:39.759Z,13.68
2023-03-04T08:28:42.171Z,8.60
2023-03-04T08:33:46.033Z,10.10
2023-03-04T08:38:48.347Z,11.20
2023-03-04T08:43:50.554Z,12.15
2023-03-04T08:48:54.160Z,18.52
2023-03-04T08:53:56.342Z,14.45
2023-03-04T08:58:59.654Z,15.93
2023-03-04T09:04:03.323Z,16.05
2023-03-04T09:09:05.583Z,17.08
2023-03-04T09:14:07.742Z,17.02
2023-03-04T09:19:11.383Z,13.07
2023-03-04T09:24:14.059Z,15.38
2023-03-04T09:29:16.277Z,12.90
2023-03-04T09:34:19.729Z,19.63
2023-03-04T09:39:21.972Z,20.52
2023-03-04T09:44:28.438Z,16.48
2023-03-04T09:49:32.551Z,30.53
2023-03-04T09:54:55.896Z,16.50
2023-03-04T10:00:10.228Z,15.18
2023-03-04T10:05:19.811Z,14.57
2023-03-04T10:10:29.441Z,23.88
2023-03-04T10:15:36.938Z,13.82
2023-03-04T10:20:51.862Z,15.38
2023-03-04T10:25:54.419Z,22.67
2023-03-04T10:31:01.876Z,14.57
2023-03-04T10:36:22.401Z,11.98
2023-03-04T10:41:28.842Z,11.80
2023-03-04T10:46:32.038Z,11.00
2023-03-04T10:51:43.024Z,17.25
2023-03-04T10:56:55.920Z,13.50
2023-03-04T11:01:58.553Z,9.55
2023-03-04T11:07:02.001Z,12.63
2023-03-04T11:12:11.191Z,11.98
2023-03-04T11:17:21.009Z,19.10
2023-03-04T11:22:27.688Z,15.30
2023-03-04T11:27:44.586Z,13.23
2023-03-04T11:32:49.750Z,11.88
2023-03-04T11:37:59.664Z,18.23
2023-03-04T11:43:07.345Z,13.45
2023-03-04T11:48:18.261Z,13.30
2023-03-04T11:53:36.259Z,23.42
2023-03-04T11:59:17.004Z,17.52
2023-03-04T12:04:40.481Z,17.83
2023-03-04T12:09:56.115Z,17.23
2023-03-04T12:15:10.990Z,14.75
2023-03-04T12:20:40.996Z,11.75
2023-03-04T12:25:53.825Z,11.80
2023-03-04T12:31:14.073Z,12.18
2023-03-04T12:36:30.676Z,17.02
2023-03-04T12:41:43.830Z,18.17
2023-03-04T12:47:14.440Z,11.48
2023-03-04T12:52:27.781Z,19.83
2023-03-04T12:57:40.553Z,22.45
2023-03-04T13:02:57.043Z,16.90
2023-03-04T13:08:08.566Z,17.33
2023-03-04T13:13:38.366Z,13.63
2023-03-04T13:18:44.021Z,16.20
2023-03-04T13:23:46.596Z,19.60
2023-03-04T13:29:10.060Z,17.30
2023-03-04T13:34:48.137Z,14.75
2023-03-04T13:40:51.877Z,21.98
2023-03-04T13:45:55.093Z,16.90
2023-03-04T13:50:58.951Z,16.42
2023-03-04T13:56:35.909Z,11.48
2023-03-04T14:02:03.334Z,19.23
2023-03-04T14:07:19.968Z,11.07
2023-03-04T14:12:22.977Z,10.32
2023-03-04T14:17:31.003Z,12.18
2023-03-04T14:22:39.036Z,11.23
2023-03-04T14:27:41.945Z,13.30
2023-03-04T14:32:48.595Z,12.98
2023-03-04T14:37:58.506Z,9.88
2023-03-04T14:43:04.527Z,14.60
2023-03-04T14:48:19.985Z,9.80
2023-03-04T14:53:25.030Z,12.25
2023-03-04T14:58:29.834Z,9.55
2023-03-04T15:03:36.273Z,9.57
2023-03-04T15:08:41.857Z,28.73
2023-03-04T15:13:51.657Z,23.15
2023-03-04T15:19:01.034Z,15.40
2023-03-04T15:24:05.147Z,15.25
2023-03-04T15:29:14.378Z,11.88
2023-03-04T15:34:20.705Z,13.13
2023-03-04T15:39:23.082Z,11.30
2023-03-04T15:44:26.332Z,13.00
2023-03-04T15:49:30.922Z,11.15
2023-03-04T15:54:33.646Z,6.90
2023-03-04T15:59:36.682Z,13.35
2023-03-04T16:04:40.725Z,9.07
2023-03-04T16:09:58.807Z,19.70
2023-03-04T16:15:01.245Z,13.95
2023-03-04T16:32:33.878Z,9.48
2023-03-04T16:37:50.130Z,7.18
2023-03-04T16:43:13.775Z,16.80
2023-03-04T16:52:27.756Z,10.60
2023-03-04T17:01:44.902Z,12.57
2023-03-04T17:30:19.690Z,20.40
2023-03-04T17:35:23.483Z,19.10
2023-03-04T17:40:25.651Z,12.23
2023-03-04T17:45:27.999Z,18.33
2023-03-04T17:50:31.693Z,18.73
2023-03-04T17:55:33.814Z,14.63
2023-03-04T18:00:36.035Z,18.67
2023-03-04T18:05:39.664Z,17.08
2023-03-04T18:10:41.766Z,18.35
2023-03-04T18:15:43.875Z,7.75
2023-03-04T18:20:47.986Z,12.10
2023-03-04T18:25:51.217Z,8.32
2023-03-04T18:30:53.986Z,10.27
2023-03-04T18:36:02.792Z,9.77
2023-03-04T18:41:06.966Z,9.85
2023-03-04T18:46:11.632Z,11.90
2023-03-04T18:51:15.221Z,8.98
2023-03-04T18:56:21.346Z,4.68
2023-03-04T19:01:24.994Z,6.10
2023-03-04T19:06:30.849Z,9.45
2023-03-04T19:11:33.291Z,5.82
2023-03-04T19:16:35.576Z,6.82
2023-03-04T19:21:39.452Z,7.13
2023-03-04T19:26:41.559Z,12.93
2023-03-04T19:31:43.927Z,9.38
2023-03-04T19:36:47.611Z,6.28
2023-03-04T19:41:50.034Z,7.47
2023-03-04T19:46:52.132Z,7.63
2023-03-04T19:52:01.341Z,8.85
2023-03-04T19:57:03.495Z,7.10
2023-03-04T20:02:05.645Z,9.13
2023-03-04T20:07:10.324Z,8.45
2023-03-04T20:12:12.475Z,10.02
2023-03-04T20:17:14.605Z,13.93
2023-03-04T20:22:18.091Z,17.73
2023-03-04T20:27:22.172Z,10.38
2023-03-04T20:32:24.632Z,12.18
2023-03-04T20:37:28.368Z,10.85
2023-03-04T20:42:30.532Z,10.77
2023-03-04T20:47:32.679Z,6.13
2023-03-04T20:52:36.284Z,6.97
2023-03-04T20:57:38.548Z,7.85
2023-03-04T21:02:40.756Z,10.38
2023-03-04T21:07:44.524Z,5.82
2023-03-04T21:12:46.794Z,5.57
2023-03-04T21:17:48.877Z,4.85
2023-03-04T21:22:52.666Z,4.32
2023-03-04T21:27:55.061Z,3.03
2023-03-04T21:32:57.273Z,5.75
2023-03-04T21:38:00.849Z,5.53
2023-03-04T21:43:03.025Z,2.88
2023-03-04T21:48:05.473Z,4.07
2023-03-04T21:53:09.088Z,3.08
2023-03-04T21:58:11.236Z,5.95
2023-03-04T22:03:13.345Z,5.22
2023-03-04T22:08:19.197Z,5.07
2023-03-04T22:13:21.323Z,5.60
2023-03-04T22:18:23.612Z,4.53
2023-03-04T22:23:27.493Z,3.35
2023-03-04T22:28:30.574Z,6.15
2023-03-04T22:33:32.842Z,3.03
2023-03-04T22:38:36.542Z,7.10
2023-03-04T22:43:38.823Z,6.20
2023-03-04T22:48:41.296Z,8.48
2023-03-04T22:53:44.788Z,8.18
2023-03-04T22:58:48.239Z,2.38
2023-03-04T23:03:50.557Z,3.97
2023-03-04T23:08:56.015Z,8.52
2023-03-04T23:13:58.474Z,4.78
2023-03-04T23:19:00.590Z,4.95
2023-03-04T23:24:06.781Z,5.47
2023-03-04T23:29:11.439Z,7.50
2023-03-04T23:34:13.950Z,3.03
2023-03-04T23:39:24.793Z,4.20
2023-03-04T23:44:27.064Z,3.42
2023-03-04T23:49:29.245Z,6.10
2023-03-04T23:54:32.933Z,12.75
2023-03-04T23:59:35.092Z,6.38
